createdAt,value
2018-04-02T00:00:04.501Z,10.08
2018-04-02T00:00:45.008Z,10.04
2018-04-02T00:01:25.512Z,10.12
2018-04-02T00:02:06.040Z,10.11
2018-04-02T00:02:46.531Z,10.11
2018-04-02T00:03:27.016Z,10.11
2018-04-02T00:04:07.506Z,10.11
2018-04-02T00:04:48.042Z,10.05
2018-04-02T00:05:28.558Z,9.97
2018-04-02T00:06:09.053Z,10.01
2018-04-02T00:06:49.561Z,9.99
2018-04-02T00:07:30.084Z,9.86
2018-04-02T00:08:10.556Z,9.94
2018-04-02T00:08:51.098Z,9.99
2018-04-02T00:09:31.552Z,10.08
2018-04-02T00:10:12.109Z,9.96
2018-04-02T00:10:52.597Z,10.09
2018-04-02T00:11:33.117Z,9.97
2018-04-02T00:12:13.584Z,10.04
2018-04-02T00:12:54.061Z,10.04
2018-04-02T00:13:34.573Z,10.18
2018-04-02T00:14:15.059Z,10.18
2018-04-02T00:14:55.574Z,10.26
2018-04-02T00:15:36.121Z,10.14
2018-04-02T00:16:16.613Z,10.14
2018-04-02T00:16:57.049Z,10.05
2018-04-02T00:17:37.556Z,10.04
2018-04-02T00:18:18.058Z,10.08
2018-04-02T00:18:58.695Z,10.05
2018-04-02T00:19:39.252Z,10.01
2018-04-02T00:20:19.740Z,10.05
2018-04-02T00:21:00.221Z,10.04
2018-04-02T00:21:40.721Z,10.11
2018-04-02T00:22:21.291Z,9.99
2018-04-02T00:23:01.804Z,10.02
2018-04-02T00:23:42.297Z,9.99
2018-04-02T00:24:22.864Z,10.12
2018-04-02T00:25:03.359Z,10.08
2018-04-02T00:25:43.864Z,10.17
2018-04-02T00:26:24.347Z,10.14
2018-04-02T00:27:04.857Z,10.17
2018-04-02T00:27:45.346Z,10.05
2018-04-02T00:28:25.869Z,10.04
2018-04-02T00:29:06.403Z,10.18
2018-04-02T00:29:46.851Z,10.15
2018-04-02T00:30:27.326Z,10.15
2018-04-02T00:31:07.854Z,10.07
2018-04-02T00:31:48.392Z,10.07
2018-04-02T00:32:28.886Z,10.08
2018-04-02T00:33:09.386Z,10.05
2018-04-02T00:33:49.886Z,10.05
2018-04-02T00:34:30.423Z,10.2
2018-04-02T00:35:10.896Z,10.18
2018-04-02T00:35:51.420Z,10.18
2018-04-02T00:36:31.979Z,10.17
2018-04-02T00:37:12.427Z,10.05
2018-04-02T00:37:52.953Z,10.17
2018-04-02T00:38:33.495Z,10.17
2018-04-02T00:39:13.984Z,10.17
2018-04-02T00:39:55.117Z,10.2
2018-04-02T00:40:34.988Z,10.17
2018-04-02T00:41:15.659Z,10.2
2018-04-02T00:41:56.201Z,10.07
2018-04-02T00:42:36.699Z,9.97
2018-04-02T00:43:17.226Z,9.99
2018-04-02T00:43:57.705Z,9.96
2018-04-02T00:44:38.227Z,10.01
2018-04-02T00:45:18.725Z,9.97
2018-04-02T00:45:59.247Z,10.01
2018-04-02T00:46:39.729Z,10.01
2018-04-02T00:47:20.242Z,9.99
2018-04-02T00:48:00.764Z,9.96
2018-04-02T00:48:41.473Z,10.01
2018-04-02T00:49:21.986Z,9.89
2018-04-02T00:50:02.487Z,9.89
2018-04-02T00:50:43.000Z,9.91
2018-04-02T00:51:23.531Z,9.94
2018-04-02T00:52:04.102Z,9.89
2018-04-02T00:52:44.586Z,9.91
2018-04-02T00:53:25.097Z,9.9
2018-04-02T00:54:05.610Z,9.71
2018-04-02T00:54:46.117Z,9.83
2018-04-02T00:55:26.609Z,9.78
2018-04-02T00:56:07.744Z,9.84
2018-04-02T00:56:48.254Z,9.79
2018-04-02T00:57:28.765Z,9.83
2018-04-02T00:58:09.263Z,9.83
2018-04-02T00:58:49.801Z,9.87
2018-04-02T00:59:30.301Z,9.81
2018-04-02T01:00:10.801Z,9.79
2018-04-02T01:00:51.297Z,9.83
2018-04-02T01:01:31.803Z,9.86
2018-04-02T01:02:12.303Z,9.86
2018-04-02T01:02:52.808Z,9.89
2018-04-02T01:03:33.321Z,9.86
2018-04-02T01:04:13.798Z,9.91
2018-04-02T01:04:54.363Z,9.79
2018-04-02T01:05:34.844Z,9.78
2018-04-02T01:06:15.381Z,9.83
2018-04-02T01:06:55.827Z,9.71
2018-04-02T01:07:36.336Z,9.87
2018-04-02T01:08:16.805Z,9.75
2018-04-02T01:08:57.295Z,9.76
2018-04-02T01:09:37.805Z,9.81
2018-04-02T01:11:17.432Z,9.81
2018-04-02T01:11:57.918Z,9.75
2018-04-02T01:12:38.408Z,9.72
2018-04-02T01:13:18.919Z,9.78
2018-04-02T01:13:59.420Z,9.78
2018-04-02T01:14:39.903Z,9.69
2018-04-02T01:15:20.433Z,9.76
2018-04-02T01:16:00.921Z,9.78
2018-04-02T01:17:38.781Z,9.81
2018-04-02T01:18:19.316Z,9.89
2018-04-02T01:18:59.836Z,9.84
2018-04-02T01:19:40.357Z,9.84
2018-04-02T01:20:20.866Z,9.79
2018-04-02T01:21:01.355Z,9.74
2018-04-02T01:21:41.877Z,9.69
2018-04-02T01:22:22.358Z,9.66
2018-04-02T01:23:02.854Z,9.75
2018-04-02T01:23:43.360Z,9.72
2018-04-02T01:24:23.859Z,9.74
2018-04-02T01:25:04.341Z,9.71
2018-04-02T01:25:44.874Z,9.84
2018-04-02T01:26:25.328Z,9.83
2018-04-02T01:27:05.924Z,9.83
2018-04-02T01:27:46.461Z,9.76
2018-04-02T01:28:26.952Z,9.76
2018-04-02T01:29:07.412Z,9.72
2018-04-02T01:29:47.912Z,9.74
2018-04-02T01:30:28.420Z,9.75
2018-04-02T01:31:08.928Z,9.76
2018-04-02T01:31:49.402Z,9.74
2018-04-02T01:32:29.896Z,9.81
2018-04-02T01:33:10.412Z,9.74
2018-04-02T01:33:50.912Z,9.76
2018-04-02T01:34:31.393Z,9.79
2018-04-02T01:35:11.848Z,9.71
2018-04-02T01:35:52.316Z,9.75
2018-04-02T01:36:32.823Z,9.76
2018-04-02T01:37:13.287Z,9.76
2018-04-02T01:37:53.774Z,9.79
2018-04-02T01:38:34.288Z,9.83
2018-04-02T01:39:14.780Z,9.64
2018-04-02T01:39:55.288Z,9.74
2018-04-02T01:40:35.793Z,9.81
2018-04-02T01:41:16.301Z,9.84
2018-04-02T01:41:56.801Z,9.78
2018-04-02T01:42:37.305Z,9.78
2018-04-02T01:43:17.819Z,9.78
2018-04-02T01:43:58.405Z,9.79
2018-04-02T01:44:38.817Z,9.76
2018-04-02T01:45:19.347Z,9.78
2018-04-02T01:45:59.850Z,9.84
2018-04-02T01:46:40.441Z,9.74
2018-04-02T01:47:20.904Z,9.71
2018-04-02T01:48:01.349Z,9.72
2018-04-02T01:48:41.843Z,9.72
2018-04-02T01:49:22.354Z,9.72
2018-04-02T01:50:02.919Z,9.72
2018-04-02T01:50:43.357Z,9.71
2018-04-02T01:51:23.845Z,9.76
2018-04-02T01:52:04.348Z,9.75
2018-04-02T01:52:44.823Z,9.71
2018-04-02T01:53:25.322Z,9.68
2018-04-02T01:54:05.797Z,9.76
2018-04-02T01:54:46.313Z,9.66
2018-04-02T01:55:26.831Z,9.72
2018-04-02T01:56:07.311Z,9.71
2018-04-02T01:56:47.793Z,9.68
2018-04-02T01:57:28.262Z,9.61
2018-04-02T01:58:08.763Z,9.61
2018-04-02T01:58:49.240Z,9.71
2018-04-02T01:59:29.698Z,9.74
2018-04-02T02:00:10.201Z,9.75
2018-04-02T02:00:50.702Z,9.68
2018-04-02T02:01:31.182Z,9.68
2018-04-02T02:02:11.680Z,9.71
2018-04-02T02:02:52.140Z,9.74
2018-04-02T02:03:32.664Z,9.58
2018-04-02T02:04:13.105Z,9.56
2018-04-02T02:04:53.615Z,9.58
2018-04-02T02:05:34.079Z,9.48
2018-04-02T02:06:14.592Z,9.51
2018-04-02T02:06:55.062Z,9.56
2018-04-02T02:07:35.581Z,9.64
2018-04-02T02:08:16.077Z,9.6
2018-04-02T02:08:56.575Z,9.46
2018-04-02T02:09:37.072Z,9.54
2018-04-02T02:10:17.626Z,9.53
2018-04-02T02:10:58.074Z,9.53
2018-04-02T02:11:38.607Z,9.35
2018-04-02T02:12:19.039Z,9.4
2018-04-02T02:12:59.615Z,9.42
2018-04-02T02:13:40.133Z,9.51
2018-04-02T02:14:20.612Z,9.54
2018-04-02T02:15:01.120Z,9.51
2018-04-02T02:15:41.576Z,9.54
2018-04-02T02:16:22.065Z,9.51
2018-04-02T02:17:02.532Z,9.5
2018-04-02T02:17:43.098Z,9.57
2018-04-02T02:18:23.558Z,9.54
2018-04-02T02:19:04.020Z,9.58
2018-04-02T02:19:44.560Z,9.56
2018-04-02T02:20:25.068Z,9.42
2018-04-02T02:21:05.665Z,9.54
2018-04-02T02:21:46.150Z,9.38
2018-04-02T02:22:26.669Z,9.51
2018-04-02T02:23:07.167Z,9.36
2018-04-02T02:23:47.704Z,9.36
2018-04-02T02:24:28.205Z,9.4
2018-04-02T02:25:08.695Z,9.4
2018-04-02T02:25:49.183Z,9.35
2018-04-02T02:26:29.650Z,9.39
2018-04-02T02:27:10.120Z,9.33
2018-04-02T02:27:50.606Z,9.38
2018-04-02T02:28:31.122Z,9.28
2018-04-02T02:29:11.620Z,9.28
2018-04-02T02:29:52.066Z,9.26
2018-04-02T02:30:32.566Z,9.29
2018-04-02T02:31:13.059Z,9.29
2018-04-02T02:31:53.554Z,9.29
2018-04-02T02:32:34.046Z,9.33
2018-04-02T02:33:14.532Z,9.29
2018-04-02T02:33:55.039Z,9.29
2018-04-02T02:34:35.500Z,9.33
2018-04-02T02:35:15.993Z,9.24
2018-04-02T02:35:56.456Z,9.28
2018-04-02T02:36:36.971Z,9.35
2018-04-02T02:37:17.487Z,9.38
2018-04-02T02:37:58.014Z,9.31
2018-04-02T02:38:38.463Z,9.36
2018-04-02T02:39:18.963Z,9.28
2018-04-02T02:39:59.451Z,9.29
2018-04-02T02:40:39.944Z,9.21
2018-04-02T02:41:20.445Z,9.21
2018-04-02T02:42:00.964Z,9.15
2018-04-02T02:42:41.498Z,9.28
2018-04-02T02:43:21.991Z,9.28
2018-04-02T02:44:02.487Z,9.26
2018-04-02T02:44:43.187Z,9.26
2018-04-02T02:45:23.624Z,9.21
2018-04-02T02:46:04.111Z,9.32
2018-04-02T02:46:44.616Z,9.23
2018-04-02T02:47:25.095Z,9.1
2018-04-02T02:48:05.591Z,9.24
2018-04-02T02:48:46.087Z,9.21
2018-04-02T02:49:26.631Z,9.24
2018-04-02T02:50:07.087Z,9.29
2018-04-02T02:50:47.601Z,9.23
2018-04-02T02:51:28.103Z,9.23
2018-04-02T02:52:08.593Z,9.29
2018-04-02T02:52:49.091Z,9.21
2018-04-02T02:53:29.567Z,9.26
2018-04-02T02:54:10.081Z,9.29
2018-04-02T02:54:50.537Z,9.31
2018-04-02T02:55:31.050Z,9.29
2018-04-02T02:56:11.516Z,9.26
2018-04-02T02:56:52.027Z,9.24
2018-04-02T02:57:32.513Z,9.28
2018-04-02T02:58:13.009Z,9.28
2018-04-02T02:58:53.540Z,9.17
2018-04-02T02:59:34.005Z,9.13
2018-04-02T03:00:14.497Z,9.14
2018-04-02T03:00:55.164Z,9.13
2018-04-02T03:01:35.565Z,9.02
2018-04-02T03:02:16.018Z,9.1
2018-04-02T03:02:56.527Z,9.14
2018-04-02T03:03:37.042Z,9.18
2018-04-02T03:04:17.501Z,9.11
2018-04-02T03:04:58.012Z,9.17
2018-04-02T03:05:38.529Z,9.15
2018-04-02T03:06:19.032Z,9.08
2018-04-02T03:06:59.535Z,9.14
2018-04-02T03:07:40.061Z,9.14
2018-04-02T03:08:20.554Z,9.15
2018-04-02T03:09:01.049Z,9.13
2018-04-02T03:09:41.709Z,9.31
2018-04-02T03:10:22.217Z,9.24
2018-04-02T03:11:02.690Z,9.14
2018-04-02T03:11:43.175Z,9.14
2018-04-02T03:12:23.679Z,9.15
2018-04-02T03:13:04.172Z,9.08
2018-04-02T03:13:44.672Z,9.13
2018-04-02T03:14:25.178Z,9.24
2018-04-02T03:15:05.654Z,9.08
2018-04-02T03:15:46.158Z,8.95
2018-04-02T03:16:26.601Z,9.08
2018-04-02T03:17:07.104Z,9.08
2018-04-02T03:17:47.599Z,9.13
2018-04-02T03:18:28.109Z,9.14
2018-04-02T03:19:08.602Z,9.08
2018-04-02T03:19:49.106Z,9.04
2018-04-02T03:20:29.613Z,9.08
2018-04-02T03:21:10.146Z,8.99
2018-04-02T03:21:50.617Z,8.96
2018-04-02T03:22:31.046Z,8.91
2018-04-02T03:23:11.538Z,8.98
2018-04-02T03:23:52.031Z,8.98
2018-04-02T03:24:32.514Z,8.99
2018-04-02T03:25:13.017Z,9.05
2018-04-02T03:25:53.491Z,9.02
2018-04-02T03:26:33.983Z,9.1
2018-04-02T03:27:14.521Z,9.04
2018-04-02T03:27:54.978Z,8.92
2018-04-02T03:28:35.497Z,8.95
2018-04-02T03:29:15.951Z,8.94
2018-04-02T03:29:56.418Z,9.04
2018-04-02T03:30:36.914Z,9.02
2018-04-02T03:31:17.435Z,9.02
2018-04-02T03:31:57.909Z,9.02
2018-04-02T03:32:38.387Z,8.99
2018-04-02T03:33:18.855Z,8.92
2018-04-02T03:33:59.343Z,8.8
2018-04-02T03:34:39.851Z,8.8
2018-04-02T03:35:20.338Z,8.77
2018-04-02T03:36:00.842Z,8.8
2018-04-02T03:36:41.333Z,8.77
2018-04-02T03:37:21.809Z,8.81
2018-04-02T03:38:02.290Z,8.86
2018-04-02T03:38:42.766Z,8.83
2018-04-02T03:39:23.256Z,8.79
2018-04-02T03:40:03.754Z,8.87
2018-04-02T03:40:44.272Z,8.87
2018-04-02T03:41:24.743Z,8.94
2018-04-02T03:42:05.282Z,8.92
2018-04-02T03:42:45.709Z,8.83
2018-04-02T03:43:26.203Z,8.83
2018-04-02T03:44:06.664Z,8.92
2018-04-02T03:44:47.124Z,8.91
2018-04-02T03:45:27.572Z,8.84
2018-04-02T03:46:08.090Z,8.84
2018-04-02T03:46:48.575Z,8.84
2018-04-02T03:47:29.094Z,8.73
2018-04-02T03:48:09.520Z,8.79
2018-04-02T03:48:50.132Z,8.71
2018-04-02T03:49:30.662Z,8.76
2018-04-02T03:50:11.131Z,8.73
2018-04-02T03:50:51.656Z,8.8
2018-04-02T03:51:32.119Z,8.66
2018-04-02T03:52:12.644Z,8.76
2018-04-02T03:52:53.150Z,8.73
2018-04-02T03:53:33.654Z,8.65
2018-04-02T03:54:14.145Z,8.71
2018-04-02T03:54:54.623Z,8.71
2018-04-02T03:55:35.126Z,8.77
2018-04-02T03:56:15.614Z,8.73
2018-04-02T03:56:56.132Z,8.62
2018-04-02T03:57:36.625Z,8.63
2018-04-02T03:58:17.152Z,8.79
2018-04-02T03:58:57.626Z,8.66
2018-04-02T03:59:38.120Z,8.62
2018-04-02T04:00:18.619Z,8.71
2018-04-02T04:00:59.107Z,8.65
2018-04-02T04:01:39.607Z,8.66
2018-04-02T04:02:20.107Z,8.74
2018-04-02T04:03:00.618Z,8.66
2018-04-02T04:03:41.245Z,8.61
2018-04-02T04:04:21.639Z,8.52
2018-04-02T04:05:02.157Z,8.5
2018-04-02T04:05:42.608Z,8.47
2018-04-02T04:06:23.142Z,8.62
2018-04-02T04:07:03.657Z,8.56
2018-04-02T04:07:44.156Z,8.58
2018-04-02T04:08:24.651Z,8.62
2018-04-02T04:09:05.141Z,8.58
2018-04-02T04:09:45.640Z,8.66
2018-04-02T04:10:26.165Z,8.68
2018-04-02T04:11:06.648Z,8.53
2018-04-02T04:11:47.092Z,8.59
2018-04-02T04:12:27.591Z,8.59
2018-04-02T04:13:08.073Z,8.61
2018-04-02T04:13:48.583Z,8.53
2018-04-02T04:14:29.089Z,8.56
2018-04-02T04:15:09.573Z,8.56
2018-04-02T04:15:50.060Z,8.66
2018-04-02T04:16:30.553Z,8.66
2018-04-02T04:17:11.084Z,8.62
2018-04-02T04:17:51.574Z,8.65
2018-04-02T04:18:32.181Z,8.52
2018-04-02T04:19:12.644Z,8.45
2018-04-02T04:19:53.101Z,8.47
2018-04-02T04:20:33.609Z,8.48
2018-04-02T04:21:14.098Z,8.44
2018-04-02T04:21:54.589Z,8.43
2018-04-02T04:22:35.079Z,8.52
2018-04-02T04:23:15.592Z,8.45
2018-04-02T04:23:56.047Z,8.41
2018-04-02T04:24:36.505Z,8.45
2018-04-02T04:25:17.085Z,8.44
2018-04-02T04:25:57.539Z,8.44
2018-04-02T04:26:38.029Z,8.33
2018-04-02T04:27:18.541Z,8.33
2018-04-02T04:27:59.005Z,8.34
2018-04-02T04:28:39.499Z,8.33
2018-04-02T04:29:19.999Z,8.33
2018-04-02T04:30:00.552Z,8.38
2018-04-02T04:30:40.968Z,8.36
2018-04-02T04:31:21.453Z,8.41
2018-04-02T04:32:01.997Z,8.34
2018-04-02T04:32:42.470Z,8.43
2018-04-02T04:33:22.946Z,8.33
2018-04-02T04:34:03.427Z,8.33
2018-04-02T04:34:43.925Z,8.36
2018-04-02T04:35:24.449Z,8.38
2018-04-02T04:36:04.914Z,8.36
2018-04-02T04:36:45.436Z,8.38
2018-04-02T04:37:25.878Z,8.4
2018-04-02T04:38:06.387Z,8.41
2018-04-02T04:38:46.890Z,8.38
2018-04-02T04:39:27.353Z,8.4
2018-04-02T04:40:07.882Z,8.4
2018-04-02T04:40:48.377Z,8.44
2018-04-02T04:41:28.884Z,8.4
2018-04-02T04:42:09.501Z,8.4
2018-04-02T04:42:49.988Z,8.48
2018-04-02T04:43:30.501Z,8.5
2018-04-02T04:44:10.978Z,8.44
2018-04-02T04:44:51.466Z,8.38
2018-04-02T04:45:31.997Z,8.33
2018-04-02T04:46:12.499Z,8.26
2018-04-02T04:46:53.029Z,8.25
2018-04-02T04:47:33.546Z,8.29
2018-04-02T04:48:14.055Z,8.3
2018-04-02T04:48:54.512Z,8.3
2018-04-02T04:49:35.020Z,8.38
2018-04-02T04:50:15.538Z,8.37
2018-04-02T04:50:56.013Z,8.37
2018-04-02T04:51:36.562Z,8.29
2018-04-02T04:52:17.095Z,8.34
2018-04-02T04:52:57.585Z,8.29
2018-04-02T04:53:38.101Z,8.29
2018-04-02T04:54:18.584Z,8.29
2018-04-02T04:54:59.184Z,8.22
2018-04-02T04:55:39.620Z,8.25
2018-04-02T04:56:20.105Z,8.29
2018-04-02T04:57:00.651Z,8.34
2018-04-02T04:57:41.157Z,8.43
2018-04-02T04:58:21.578Z,8.37
2018-04-02T04:59:02.672Z,8.4
2018-04-02T04:59:43.285Z,8.41
2018-04-02T05:00:23.890Z,8.4
2018-04-02T05:01:04.268Z,8.43
2018-04-02T05:01:44.760Z,8.36
2018-04-02T05:02:25.248Z,8.47
2018-04-02T05:03:05.728Z,8.41
2018-04-02T05:03:46.241Z,8.41
2018-04-02T05:04:26.761Z,8.4
2018-04-02T05:05:07.180Z,8.29
2018-04-02T05:05:47.691Z,8.3
2018-04-02T05:06:28.165Z,8.37
2018-04-02T05:07:08.706Z,8.38
2018-04-02T05:07:49.251Z,8.38
2018-04-02T05:08:29.729Z,8.4
2018-04-02T05:09:10.266Z,8.38
2018-04-02T05:09:50.697Z,8.41
2018-04-02T05:10:31.228Z,8.43
2018-04-02T05:11:11.714Z,8.38
2018-04-02T05:11:52.217Z,8.43
2018-04-02T05:12:32.733Z,8.45
2018-04-02T05:13:13.247Z,8.48
2018-04-02T05:13:53.752Z,8.48
2018-04-02T05:14:34.255Z,8.56
2018-04-02T05:15:14.721Z,8.5
2018-04-02T05:15:55.177Z,8.55
2018-04-02T05:16:35.685Z,8.59
2018-04-02T05:17:16.184Z,8.4
2018-04-02T05:17:56.691Z,8.38
2018-04-02T05:18:37.215Z,8.41
2018-04-02T05:19:17.667Z,8.41
2018-04-02T05:19:58.167Z,8.44
2018-04-02T05:20:38.642Z,8.45
2018-04-02T05:21:19.164Z,8.41
2018-04-02T05:21:59.679Z,8.56
2018-04-02T05:22:40.163Z,8.56
2018-04-02T05:23:20.605Z,8.61
2018-04-02T05:24:01.082Z,8.58
2018-04-02T05:24:41.568Z,8.76
2018-04-02T05:25:22.078Z,8.61
2018-04-02T05:26:02.557Z,8.76
2018-04-02T05:26:43.100Z,8.74
2018-04-02T05:27:23.656Z,8.77
2018-04-02T05:28:04.104Z,8.59
2018-04-02T05:28:44.633Z,8.65
2018-04-02T05:29:25.106Z,8.76
2018-04-02T05:30:05.607Z,8.86
2018-04-02T05:30:46.071Z,8.76
2018-04-02T05:31:26.528Z,8.84
2018-04-02T05:32:07.059Z,8.83
2018-04-02T05:32:47.496Z,8.84
2018-04-02T05:33:27.994Z,8.83
2018-04-02T05:34:08.453Z,8.83
2018-04-02T05:34:48.959Z,8.8
2018-04-02T05:35:30.303Z,8.83
2018-04-02T05:36:10.852Z,8.87
2018-04-02T05:36:51.285Z,8.95
2018-04-02T05:37:31.765Z,8.99
2018-04-02T05:38:12.289Z,8.98
2018-04-02T05:38:52.798Z,9.1
2018-04-02T05:39:33.185Z,9.11
2018-04-02T05:40:13.745Z,9.04
2018-04-02T05:40:54.176Z,9.11
2018-04-02T05:41:34.711Z,9.08
2018-04-02T05:42:15.232Z,9.05
2018-04-02T05:42:55.706Z,9.14
2018-04-02T05:43:36.311Z,9.13
2018-04-02T05:44:16.879Z,9.14
2018-04-02T05:44:57.346Z,9.13
2018-04-02T05:45:37.834Z,9.14
2018-04-02T05:46:18.377Z,9.2
2018-04-02T05:46:58.796Z,9.14
2018-04-02T05:47:39.282Z,9.23
2018-04-02T05:48:19.764Z,9.23
2018-04-02T05:49:00.263Z,9.1
2018-04-02T05:49:40.795Z,9.05
2018-04-02T05:50:21.304Z,9.11
2018-04-02T05:51:01.805Z,9.1
2018-04-02T05:51:42.302Z,9.01
2018-04-02T05:52:22.798Z,9.05
2018-04-02T05:53:03.295Z,9.18
2018-04-02T05:53:43.813Z,9.23
2018-04-02T05:54:24.280Z,9.24
2018-04-02T05:55:04.841Z,9.13
2018-04-02T05:55:45.264Z,9.14
2018-04-02T05:56:25.863Z,9.24
2018-04-02T05:57:06.354Z,9.33
2018-04-02T05:57:46.848Z,9.38
2018-04-02T05:58:27.309Z,9.36
2018-04-02T05:59:07.885Z,9.46
2018-04-02T05:59:48.403Z,9.33
2018-04-02T06:00:28.842Z,9.54
2018-04-02T06:01:09.343Z,9.56
2018-04-02T06:01:49.850Z,9.58
2018-04-02T06:02:30.356Z,9.61
2018-04-02T06:03:10.810Z,9.68
2018-04-02T06:03:51.357Z,9.68
2018-04-02T06:04:31.843Z,9.78
2018-04-02T06:05:12.443Z,9.74
2018-04-02T06:05:52.897Z,9.83
2018-04-02T06:06:33.377Z,9.83
2018-04-02T06:07:13.886Z,9.83
2018-04-02T06:07:54.394Z,9.97
2018-04-02T06:08:34.876Z,9.97
2018-04-02T06:09:15.361Z,9.97
2018-04-02T06:09:55.836Z,10.05
2018-04-02T06:10:36.392Z,10.18
2018-04-02T06:11:16.860Z,10.08
2018-04-02T06:11:57.324Z,10.2
2018-04-02T06:12:37.834Z,10.34
2018-04-02T06:13:18.373Z,10.56
2018-04-02T06:13:58.800Z,10.4
2018-04-02T06:14:39.334Z,10.44
2018-04-02T06:15:19.833Z,10.55
2018-04-02T06:16:00.329Z,10.61
2018-04-02T06:16:40.897Z,10.63
2018-04-02T06:17:21.320Z,10.61
2018-04-02T06:18:01.761Z,10.6
2018-04-02T06:18:42.273Z,10.73
2018-04-02T06:19:22.770Z,10.71
2018-04-02T06:20:03.243Z,10.79
2018-04-02T06:20:43.753Z,10.78
2018-04-02T06:21:24.256Z,10.78
2018-04-02T06:22:05.582Z,10.82
2018-04-02T06:22:46.097Z,10.81
2018-04-02T06:23:26.672Z,10.86
2018-04-02T06:24:09.081Z,10.84
2018-04-02T06:24:48.227Z,10.88
2018-04-02T06:25:28.693Z,10.79
2018-04-02T06:26:09.211Z,10.81
2018-04-02T06:26:49.703Z,10.82
2018-04-02T06:27:30.194Z,10.78
2018-04-02T06:28:10.694Z,10.67
2018-04-02T06:28:51.945Z,10.73
2018-04-02T06:29:32.416Z,10.82
2018-04-02T06:30:12.949Z,10.79
2018-04-02T06:30:53.413Z,10.82
2018-04-02T06:31:33.932Z,10.82
2018-04-02T06:32:14.359Z,10.67
2018-04-02T06:32:54.866Z,10.6
2018-04-02T06:33:35.345Z,10.63
2018-04-02T06:34:15.811Z,10.61
2018-04-02T06:34:56.303Z,10.63
2018-04-02T06:35:36.872Z,10.74
2018-04-02T06:36:17.288Z,10.68
2018-04-02T06:36:57.837Z,10.68
2018-04-02T06:37:38.353Z,10.51
2018-04-02T06:38:18.858Z,10.47
2018-04-02T06:38:59.299Z,10.44
2018-04-02T06:39:39.797Z,10.56
2018-04-02T06:40:20.311Z,10.34
2018-04-02T06:41:00.832Z,10.33
2018-04-02T06:41:41.365Z,10.23
2018-04-02T06:42:21.841Z,10.29
2018-04-02T06:43:02.426Z,10.29
2018-04-02T06:43:42.859Z,10.18
2018-04-02T06:44:23.362Z,10.2
2018-04-02T06:45:03.868Z,10.32
2018-04-02T06:45:44.341Z,10.22
2018-04-02T06:46:24.836Z,10.23
2018-04-02T06:47:05.283Z,10.26
2018-04-02T06:47:45.819Z,10.17
2018-04-02T06:48:26.361Z,10.29
2018-04-02T06:49:06.859Z,10.27
2018-04-02T06:49:47.335Z,10.23
2018-04-02T06:50:27.855Z,10.32
2018-04-02T06:51:08.336Z,10.36
2018-04-02T06:51:48.786Z,10.4
2018-04-02T06:52:29.285Z,10.26
2018-04-02T06:53:09.780Z,10.32
2018-04-02T06:53:50.293Z,10.3
2018-04-02T06:54:30.879Z,10.33
2018-04-02T06:55:11.253Z,10.34
2018-04-02T06:55:51.739Z,10.32
2018-04-02T06:56:32.254Z,10.33
2018-04-02T06:57:12.705Z,10.3
2018-04-02T06:57:53.217Z,10.4
2018-04-02T06:58:33.685Z,10.42
2018-04-02T06:59:14.216Z,10.38
2018-04-02T06:59:54.741Z,10.42
2018-04-02T07:00:35.197Z,10.38
2018-04-02T07:01:15.694Z,10.42
2018-04-02T07:01:56.207Z,10.52
2018-04-02T07:02:36.647Z,10.48
2018-04-02T07:03:17.181Z,10.6
2018-04-02T07:03:57.602Z,10.76
2018-04-02T07:04:38.101Z,10.78
2018-04-02T07:05:18.594Z,10.89
2018-04-02T07:05:59.083Z,10.88
2018-04-02T07:06:39.799Z,10.97
2018-04-02T07:07:20.280Z,10.92
2018-04-02T07:08:00.783Z,11.19
2018-04-02T07:08:41.234Z,11.29
2018-04-02T07:09:21.720Z,11.35
2018-04-02T07:10:02.229Z,11.44
2018-04-02T07:10:42.761Z,11.49
2018-04-02T07:11:23.202Z,11.69
2018-04-02T07:12:03.722Z,11.86
2018-04-02T07:12:44.173Z,12.12
2018-04-02T07:13:24.661Z,12.1
2018-04-02T07:14:05.166Z,12.24
2018-04-02T07:14:45.688Z,12.41
2018-04-02T07:15:26.163Z,12.39
2018-04-02T07:16:06.678Z,12.38
2018-04-02T07:16:47.195Z,12.45
2018-04-02T07:17:27.727Z,12.42
2018-04-02T07:18:08.157Z,12.47
2018-04-02T07:18:48.659Z,12.52
2018-04-02T07:19:29.127Z,12.54
2018-04-02T07:20:09.621Z,12.5
2018-04-02T07:20:50.134Z,12.62
2018-04-02T07:21:30.636Z,12.53
2018-04-02T07:22:11.173Z,12.5
2018-04-02T07:22:51.665Z,12.32
2018-04-02T07:23:32.162Z,12.49
2018-04-02T07:24:12.664Z,12.62
2018-04-02T07:24:53.151Z,12.57
2018-04-02T07:25:33.667Z,12.68
2018-04-02T07:26:14.221Z,12.5
2018-04-02T07:26:54.796Z,12.67
2018-04-02T07:27:35.324Z,12.72
2018-04-02T07:28:15.756Z,12.59
2018-04-02T07:28:56.231Z,12.64
2018-04-02T07:29:36.784Z,12.59
2018-04-02T07:30:17.227Z,12.56
2018-04-02T07:30:57.780Z,12.53
2018-04-02T07:31:38.271Z,12.59
2018-04-02T07:32:18.805Z,12.67
2018-04-02T07:32:59.529Z,12.53
2018-04-02T07:33:39.962Z,12.71
2018-04-02T07:34:20.442Z,12.67
2018-04-02T07:35:00.923Z,12.72
2018-04-02T07:35:41.449Z,12.92
2018-04-02T07:36:21.960Z,12.9
2018-04-02T07:37:02.439Z,12.92
2018-04-02T07:37:42.990Z,13.04
2018-04-02T07:38:23.490Z,13
2018-04-02T07:39:04.066Z,13.04
2018-04-02T07:39:44.564Z,13.12
2018-04-02T07:40:25.051Z,13.15
2018-04-02T07:41:05.538Z,12.97
2018-04-02T07:41:46.060Z,12.93
2018-04-02T07:42:26.512Z,12.85
2018-04-02T07:43:06.976Z,12.97
2018-04-02T07:43:47.499Z,12.97
2018-04-02T07:44:27.959Z,12.97
2018-04-02T07:45:08.462Z,13.08
2018-04-02T07:45:48.960Z,13.07
2018-04-02T07:46:29.490Z,13.19
2018-04-02T07:47:09.982Z,13.17
2018-04-02T07:47:50.438Z,13.17
2018-04-02T07:48:30.885Z,13.19
2018-04-02T07:49:11.482Z,13.11
2018-04-02T07:49:51.880Z,13.1
2018-04-02T07:50:32.410Z,13.08
2018-04-02T07:51:13.194Z,12.96
2018-04-02T07:51:53.703Z,12.93
2018-04-02T07:52:34.154Z,12.95
2018-04-02T07:53:14.701Z,12.95
2018-04-02T07:53:55.166Z,12.77
2018-04-02T07:54:35.657Z,12.71
2018-04-02T07:55:16.113Z,12.74
2018-04-02T07:55:56.696Z,12.7
2018-04-02T07:56:37.111Z,12.64
2018-04-02T07:57:17.584Z,12.71
2018-04-02T07:57:58.090Z,12.59
2018-04-02T07:58:38.600Z,12.56
2018-04-02T07:59:19.056Z,12.62
2018-04-02T08:00:00.029Z,12.47
2018-04-02T08:00:40.693Z,12.46
2018-04-02T08:01:21.187Z,12.5
2018-04-02T08:02:01.711Z,12.53
2018-04-02T08:02:42.207Z,12.5
2018-04-02T08:03:22.652Z,12.6
2018-04-02T08:04:03.143Z,12.6
2018-04-02T08:04:43.694Z,12.5
2018-04-02T08:05:24.326Z,12.5
2018-04-02T08:06:04.797Z,12.49
2018-04-02T08:06:45.290Z,12.59
2018-04-02T08:07:25.828Z,12.56
2018-04-02T08:08:06.552Z,12.57
2018-04-02T08:08:46.871Z,12.6
2018-04-02T08:09:27.431Z,12.65
2018-04-02T08:10:07.864Z,12.54
2018-04-02T08:10:48.413Z,12.53
2018-04-02T08:11:29.043Z,12.54
2018-04-02T08:12:09.528Z,12.53
2018-04-02T08:12:50.029Z,12.57
2018-04-02T08:13:30.505Z,12.56
2018-04-02T08:14:11.039Z,12.54
2018-04-02T08:14:51.492Z,12.53
2018-04-02T08:15:32.057Z,12.52
2018-04-02T08:16:12.589Z,12.74
2018-04-02T08:16:53.460Z,12.65
2018-04-02T08:17:34.015Z,12.6
2018-04-02T08:18:14.491Z,12.56
2018-04-02T08:18:55.070Z,12.54
2018-04-02T08:19:35.510Z,12.56
2018-04-02T08:20:16.519Z,12.54
2018-04-02T08:20:57.002Z,12.59
2018-04-02T08:21:37.597Z,12.52
2018-04-02T08:22:18.842Z,12.5
2018-04-02T08:22:59.333Z,12.45
2018-04-02T08:23:39.842Z,12.28
2018-04-02T08:24:20.366Z,12.29
2018-04-02T08:25:00.911Z,12.24
2018-04-02T08:25:41.338Z,12.24
2018-04-02T08:26:21.861Z,12.31
2018-04-02T08:27:02.310Z,12.23
2018-04-02T08:27:42.851Z,12.27
2018-04-02T08:28:23.333Z,12.16
2018-04-02T08:29:03.861Z,12.01
2018-04-02T08:29:44.418Z,12.14
2018-04-02T08:30:24.889Z,12.12
2018-04-02T08:31:05.326Z,12.24
2018-04-02T08:31:45.776Z,12.35
2018-04-02T08:32:26.393Z,12.35
2018-04-02T08:33:06.823Z,12.34
2018-04-02T08:33:47.342Z,12.35
2018-04-02T08:34:27.829Z,12.42
2018-04-02T08:35:08.364Z,12.49
2018-04-02T08:35:48.775Z,12.52
2018-04-02T08:36:29.274Z,12.64
2018-04-02T08:37:09.998Z,12.64
2018-04-02T08:37:50.562Z,12.56
2018-04-02T08:38:31.018Z,12.68
2018-04-02T08:39:11.827Z,12.7
2018-04-02T08:39:52.322Z,12.71
2018-04-02T08:40:32.815Z,12.64
2018-04-02T08:41:13.282Z,12.65
2018-04-02T08:41:53.743Z,12.64
2018-04-02T08:42:34.254Z,12.64
2018-04-02T08:43:14.740Z,12.64
2018-04-02T08:43:55.234Z,12.67
2018-04-02T08:44:35.722Z,12.65
2018-04-02T08:45:16.276Z,12.72
2018-04-02T08:45:56.740Z,12.72
2018-04-02T08:46:37.360Z,12.75
2018-04-02T08:47:17.826Z,12.77
2018-04-02T08:47:58.253Z,12.72
2018-04-02T08:48:38.711Z,12.65
2018-04-02T08:49:19.167Z,12.59
2018-04-02T08:49:59.680Z,12.68
2018-04-02T08:50:40.282Z,12.64
2018-04-02T08:51:20.811Z,12.64
2018-04-02T08:52:01.276Z,12.67
2018-04-02T08:52:41.821Z,12.72
2018-04-02T08:53:22.304Z,12.72
2018-04-02T08:54:02.796Z,12.7
2018-04-02T08:54:43.543Z,12.71
2018-04-02T08:55:24.025Z,12.64